Time;durP1;ratioP1;P1;durP2;ratioP2;P2;SDS_P1;SDS_P2;PMS_P1;PMS_P2;Temp;Humidity;BMP_temperature;BMP_pressure;BME280_temperature;BME280_humidity;BME280_pressure;Samples;Min_cycle;Max_cycle;Signal;HPM_P1;HPM_P2
2022/03/18 00:02:25;;;;;;;0.17;0.17;;;7.80;99.90;;;;;;6276161;22;20061;-71
2022/03/18 00:04:53;;;;;;;0.10;0.10;;;7.70;99.90;;;;;;6286457;22;20079;-71
2022/03/18 00:07:21;;;;;;;0.15;0.15;;;7.70;99.90;;;;;;6286491;22;20071;-71
2022/03/18 00:09:48;;;;;;;0.00;0.00;;;7.70;99.90;;;;;;6286387;22;20336;-71
2022/03/18 00:12:14;;;;;;;0.10;0.10;;;7.70;99.90;;;;;;6286408;22;20014;-71
2022/03/18 00:14:40;;;;;;;0.10;0.10;;;7.70;99.90;;;;;;6286081;22;20004;-72
2022/03/18 00:17:11;;;;;;;0.03;0.03;;;7.70;99.90;;;;;;6284164;22;20325;-72
2022/03/18 00:19:39;;;;;;;7.18;1.30;;;7.70;99.90;;;;;;6276296;22;20011;-72
2022/03/18 00:22:06;;;;;;;0.10;0.10;;;7.70;99.90;;;;;;6284628;22;20339;-72
2022/03/18 00:24:33;;;;;;;0.00;0.00;;;7.70;99.90;;;;;;6276079;22;20428;-72
2022/03/18 00:27:01;;;;;;;0.00;0.00;;;7.70;99.90;;;;;;6286089;22;20008;-72
2022/03/18 00:29:27;;;;;;;0.10;0.10;;;7.70;99.90;;;;;;6274729;22;20018;-72
2022/03/18 00:31:54;;;;;;;0.00;0.00;;;7.70;99.90;;;;;;6286062;22;20000;-71
2022/03/18 00:34:20;;;;;;;0.03;0.03;;;7.70;99.90;;;;;;6285996;22;20454;-71
2022/03/18 00:36:46;;;;;;;0.00;0.00;;;7.70;99.90;;;;;;6276191;22;20018;-71
2022/03/18 00:39:12;;;;;;;0.10;0.10;;;7.70;99.90;;;;;;6274841;22;20019;-71
2022/03/18 00:41:37;;;;;;;0.00;0.00;;;7.60;99.90;;;;;;6276157;22;20008;-71
2022/03/18 00:44:04;;;;;;;0.28;0.28;;;7.60;99.90;;;;;;6285945;22;20015;-72
2022/03/18 00:46:29;;;;;;;0.00;0.00;;;7.60;99.90;;;;;;6285707;22;20007;-72
2022/03/18 00:52:03;;;;;;;0.13;0.13;;;7.60;99.90;;;;;;6285579;22;20057;-72
2022/03/18 00:54:37;;;;;;;0.10;0.10;;;7.60;99.90;;;;;;6277827;22;20011;-72
2022/03/18 00:57:04;;;;;;;0.52;0.52;;;7.60;99.90;;;;;;6315456;22;20007;-72
2022/03/18 00:59:31;;;;;;;0.22;0.22;;;7.50;99.90;;;;;;6316614;22;20014;-72
2022/03/18 01:01:57;;;;;;;0.10;0.10;;;7.50;99.90;;;;;;6306693;22;20014;-72
2022/03/18 01:04:24;;;;;;;0.00;0.00;;;7.50;99.90;;;;;;6316756;22;20442;-72
2022/03/18 01:06:52;;;;;;;0.10;0.10;;;7.50;99.90;;;;;;6316687;22;20367;-72
2022/03/18 01:09:20;;;;;;;0.00;0.00;;;7.50;99.90;;;;;;6316720;22;20008;-71
2022/03/18 01:11:46;;;;;;;0.63;0.63;;;7.50;99.90;;;;;;6306574;22;20484;-72
2022/03/18 01:14:13;;;;;;;0.00;0.00;;;7.50;99.90;;;;;;6306722;22;20033;-72
2022/03/18 01:16:38;;;;;;;0.10;0.10;;;7.50;99.90;;;;;;6316538;22;20041;-72
2022/03/18 01:19:04;;;;;;;0.00;0.00;;;7.40;99.90;;;;;;6316478;22;20736;-72
2022/03/18 01:21:30;;;;;;;0.00;0.00;;;7.40;99.90;;;;;;6316503;22;20014;-72
2022/03/18 01:23:57;;;;;;;0.10;0.10;;;7.40;99.90;;;;;;6316428;22;20029;-72
2022/03/18 01:26:24;;;;;;;0.00;0.00;;;7.40;99.90;;;;;;6316529;22;20003;-72
2022/03/18 01:28:52;;;;;;;0.35;0.35;;;7.40;99.90;;;;;;6316072;22;20007;-72
2022/03/18 01:31:18;;;;;;;0.00;0.00;;;7.40;99.90;;;;;;6316615;22;20014;-72
2022/03/18 01:33:44;;;;;;;0.00;0.00;;;7.40;99.90;;;;;;6316230;22;20344;-72
2022/03/18 01:36:11;;;;;;;0.32;0.32;;;7.40;99.90;;;;;;6316476;22;20015;-72
2022/03/18 01:38:37;;;;;;;0.10;0.10;;;7.30;99.90;;;;;;6316155;22;20003;-72
2022/03/18 01:41:03;;;;;;;0.63;0.63;;;7.40;99.90;;;;;;6316471;22;20026;-72
2022/03/18 01:43:41;;;;;;;0.00;0.00;;;7.30;99.90;;;;;;6314630;22;20297;-72
2022/03/18 01:46:08;;;;;;;0.00;0.00;;;7.30;99.90;;;;;;6304982;22;20011;-72
2022/03/18 01:48:34;;;;;;;0.03;0.03;;;7.30;99.90;;;;;;6316205;22;20017;-72
2022/03/18 01:51:00;;;;;;;0.10;0.10;;;7.20;99.90;;;;;;6304801;22;20018;-72
2022/03/18 01:53:27;;;;;;;0.00;0.00;;;7.20;99.90;;;;;;6327600;22;20339;-72
2022/03/18 01:55:55;;;;;;;0.73;0.73;;;7.20;99.90;;;;;;6337548;22;20046;-72
2022/03/18 01:58:22;;;;;;;0.52;0.47;;;7.20;99.90;;;;;;6347505;22;20007;-72
2022/03/18 02:00:48;;;;;;;0.10;0.10;;;7.10;99.90;;;;;;6309738;22;20006;-72
2022/03/18 02:03:14;;;;;;;3.63;0.80;;;7.20;99.90;;;;;;6337242;22;19999;-72
2022/03/18 02:05:41;;;;;;;0.00;0.00;;;7.10;99.90;;;;;;6336781;22;20014;-72
2022/03/18 02:08:09;;;;;;;0.10;0.10;;;7.10;99.90;;;;;;6337558;22;20010;-72
2022/03/18 02:10:36;;;;;;;0.00;0.00;;;7.10;99.90;;;;;;6309765;22;20081;-72
2022/03/18 02:13:02;;;;;;;0.00;0.00;;;7.10;99.90;;;;;;6347336;22;20021;-72
2022/03/18 02:15:29;;;;;;;0.10;0.10;;;7.00;99.90;;;;;;6337149;22;20010;-72
2022/03/18 02:17:54;;;;;;;0.10;0.10;;;7.00;99.90;;;;;;6347477;22;20622;-72
2022/03/18 02:20:21;;;;;;;0.13;0.13;;;7.00;99.90;;;;;;6337424;22;20006;-72
2022/03/18 02:22:46;;;;;;;0.00;0.00;;;7.00;99.90;;;;;;6336938;22;20003;-72
2022/03/18 02:25:12;;;;;;;0.00;0.00;;;7.00;99.90;;;;;;6337317;22;20101;-72
2022/03/18 02:27:41;;;;;;;0.32;0.25;;;6.90;99.90;;;;;;6337093;22;20003;-72
2022/03/18 02:30:09;;;;;;;0.10;0.10;;;7.00;99.90;;;;;;6337031;22;20056;-72
2022/03/18 02:32:36;;;;;;;0.10;0.10;;;6.90;99.90;;;;;;6337050;22;20451;-73
2022/03/18 02:35:02;;;;;;;0.00;0.00;;;6.90;99.90;;;;;;6346962;22;20007;-72
2022/03/18 02:37:28;;;;;;;0.03;0.03;;;6.90;99.90;;;;;;6347198;22;20030;-71
2022/03/18 02:39:55;;;;;;;0.10;0.10;;;6.90;99.90;;;;;;6337126;22;20305;-72
2022/03/18 02:42:22;;;;;;;0.20;0.20;;;6.80;99.90;;;;;;6349188;22;20331;-72
2022/03/18 02:44:49;;;;;;;0.08;0.08;;;6.80;99.90;;;;;;6349297;22;20007;-72
2022/03/18 02:47:14;;;;;;;0.00;0.00;;;6.80;99.90;;;;;;6349454;22;20007;-72
2022/03/18 02:49:40;;;;;;;0.55;0.55;;;6.80;99.90;;;;;;6349252;22;20029;-72
2022/03/18 02:52:06;;;;;;;0.00;0.00;;;6.80;99.90;;;;;;6349411;22;20003;-72
2022/03/18 02:54:33;;;;;;;0.10;0.10;;;6.70;99.90;;;;;;6349157;22;20038;-72
2022/03/18 02:56:59;;;;;;;0.00;0.00;;;6.70;99.90;;;;;;6349285;22;20061;-72
2022/03/18 02:59:25;;;;;;;0.03;0.03;;;6.70;99.90;;;;;;6338844;22;20007;-72
2022/03/18 03:01:50;;;;;;;0.00;0.00;;;6.60;99.90;;;;;;6349085;22;20056;-72
2022/03/18 03:04:17;;;;;;;0.10;0.10;;;6.60;99.90;;;;;;6349247;22;20033;-72
2022/03/18 03:09:28;;;;;;;0.65;0.65;;;6.60;99.90;;;;;;6349149;22;20002;-72
2022/03/18 03:11:54;;;;;;;0.00;0.00;;;6.50;99.90;;;;;;6349153;22;20082;-72
2022/03/18 03:14:20;;;;;;;0.10;0.10;;;6.50;99.90;;;;;;6348878;22;20046;-72
2022/03/18 03:16:46;;;;;;;0.10;0.10;;;6.50;99.90;;;;;;6348915;22;20402;-73
2022/03/18 03:19:13;;;;;;;0.43;0.43;;;6.50;99.90;;;;;;6349175;22;20019;-73
2022/03/18 03:21:40;;;;;;;0.10;0.10;;;6.50;99.90;;;;;;6311179;22;20034;-73
2022/03/18 03:24:07;;;;;;;2.17;1.45;;;6.50;99.90;;;;;;6348922;22;20030;-73
2022/03/18 03:26:33;;;;;;;0.03;0.03;;;6.40;99.90;;;;;;6321461;22;20030;-73
2022/03/18 03:28:59;;;;;;;0.25;0.25;;;6.40;99.90;;;;;;6338530;22;20010;-74
2022/03/18 03:31:24;;;;;;;1.75;1.65;;;6.40;99.90;;;;;;6321461;22;20107;-72
2022/03/18 03:33:50;;;;;;;0.00;0.00;;;6.40;99.90;;;;;;6348753;22;20022;-72
2022/03/18 03:36:16;;;;;;;0.85;0.85;;;6.40;99.90;;;;;;6338615;22;20007;-72
2022/03/18 03:38:42;;;;;;;0.05;0.05;;;6.40;99.90;;;;;;6338331;22;20015;-72
2022/03/18 03:41:07;;;;;;;0.00;0.00;;;6.40;99.90;;;;;;6321266;22;20408;-73
2022/03/18 03:43:33;;;;;;;0.00;0.00;;;6.40;99.90;;;;;;6348679;22;20014;-72
2022/03/18 03:45:59;;;;;;;0.10;0.10;;;6.30;99.90;;;;;;6310624;22;20006;-72
2022/03/18 03:48:25;;;;;;;0.17;0.17;;;6.40;99.90;;;;;;6338669;22;20007;-72
2022/03/18 03:50:50;;;;;;;0.10;0.10;;;6.40;99.90;;;;;;6348639;22;20010;-73
2022/03/18 03:53:16;;;;;;;0.22;0.20;;;6.30;99.90;;;;;;6348091;22;20086;-72
2022/03/18 03:55:42;;;;;;;0.05;0.05;;;6.30;99.90;;;;;;6338251;22;20327;-73
2022/03/18 03:58:08;;;;;;;0.10;0.10;;;6.30;99.90;;;;;;6348657;22;20003;-72
2022/03/18 04:00:37;;;;;;;0.00;0.00;;;6.30;99.90;;;;;;6348508;22;20505;-72
2022/03/18 04:03:06;;;;;;;0.00;0.00;;;6.30;99.90;;;;;;6348741;22;20003;-72
2022/03/18 04:05:34;;;;;;;0.30;0.30;;;6.20;99.90;;;;;;6348264;22;20011;-72
2022/03/18 04:08:01;;;;;;;0.00;0.00;;;6.20;99.90;;;;;;6321176;22;20049;-72
2022/03/18 04:10:27;;;;;;;0.00;0.00;;;6.20;99.90;;;;;;6348487;22;20364;-72
2022/03/18 04:12:54;;;;;;;0.10;0.10;;;6.20;99.90;;;;;;6348256;22;20107;-72
2022/03/18 04:15:21;;;;;;;0.10;0.10;;;6.20;99.90;;;;;;6338161;22;20014;-72
2022/03/18 04:17:48;;;;;;;0.10;0.10;;;6.20;99.90;;;;;;6320845;22;20011;-73
2022/03/18 04:20:21;;;;;;;0.00;0.00;;;6.20;99.90;;;;;;6348219;22;20007;-72
2022/03/18 04:22:49;;;;;;;0.10;0.10;;;6.20;99.90;;;;;;6348114;22;20003;-72
2022/03/18 04:25:15;;;;;;;0.00;0.00;;;6.30;99.90;;;;;;6338225;22;20093;-73
2022/03/18 04:27:41;;;;;;;0.05;0.05;;;6.20;99.90;;;;;;6338089;22;20369;-73
2022/03/18 04:30:11;;;;;;;0.10;0.10;;;6.20;99.90;;;;;;6348268;22;20091;-72
2022/03/18 04:32:37;;;;;;;0.85;0.85;;;6.20;99.90;;;;;;6347958;22;20010;-72
2022/03/18 04:35:05;;;;;;;0.45;0.45;;;6.30;99.90;;;;;;6348141;22;20010;-73
2022/03/18 04:37:31;;;;;;;0.00;0.00;;;6.30;99.90;;;;;;6338172;22;20006;-72
2022/03/18 04:39:57;;;;;;;0.10;0.10;;;6.30;99.90;;;;;;6337432;22;20010;-72
2022/03/18 04:42:23;;;;;;;0.17;0.17;;;6.20;99.90;;;;;;6336322;22;20332;-72
2022/03/18 04:44:49;;;;;;;0.10;0.10;;;6.20;99.90;;;;;;6320530;22;20003;-72
2022/03/18 04:47:14;;;;;;;0.10;0.10;;;6.20;99.90;;;;;;6348167;22;20007;-72
2022/03/18 04:49:41;;;;;;;0.98;0.47;;;6.20;99.90;;;;;;6337864;22;20014;-72
2022/03/18 04:52:07;;;;;;;0.43;0.43;;;6.30;99.90;;;;;;6336953;22;19995;-72
2022/03/18 04:54:33;;;;;;;0.00;0.00;;;6.30;99.90;;;;;;6318896;22;20026;-74
2022/03/18 04:59:44;;;;;;;0.10;0.10;;;6.40;99.90;;;;;;6337406;22;20002;-72
2022/03/18 05:02:10;;;;;;;0.10;0.10;;;6.40;99.90;;;;;;6347784;22;20018;-72
2022/03/18 05:04:38;;;;;;;1.75;1.45;;;6.40;99.90;;;;;;6347306;22;20476;-69
2022/03/18 05:07:05;;;;;;;0.10;0.10;;;6.30;99.90;;;;;;6337345;22;20015;-73
2022/03/18 05:09:31;;;;;;;2.00;1.83;;;6.30;99.90;;;;;;6310224;22;20003;-75
2022/03/18 05:11:56;;;;;;;0.52;0.52;;;6.30;99.90;;;;;;6347539;22;20007;-78
2022/03/18 05:14:22;;;;;;;0.00;0.00;;;6.30;99.90;;;;;;6337554;22;20484;-71
2022/03/18 05:16:49;;;;;;;0.10;0.10;;;6.30;99.90;;;;;;6347335;22;20034;-71
2022/03/18 05:19:15;;;;;;;0.00;0.00;;;6.30;99.90;;;;;;6347853;22;20007;-71
2022/03/18 05:21:41;;;;;;;0.00;0.00;;;6.30;99.90;;;;;;6347115;22;20026;-70
2022/03/18 05:24:10;;;;;;;0.40;0.40;;;6.40;99.90;;;;;;6347131;22;20003;-70
2022/03/18 05:26:37;;;;;;;0.00;0.00;;;6.30;99.90;;;;;;6337106;22;20015;-70
2022/03/18 05:29:03;;;;;;;0.10;0.10;;;6.20;99.90;;;;;;6347712;22;20011;-77
2022/03/18 05:31:31;;;;;;;0.10;0.10;;;6.20;99.90;;;;;;6347441;22;20006;-78
2022/03/18 05:33:57;;;;;;;0.10;0.10;;;6.10;99.90;;;;;;6347104;22;20014;-75
2022/03/18 05:36:23;;;;;;;0.10;0.10;;;6.10;99.90;;;;;;6309415;22;20060;-73
2022/03/18 05:38:49;;;;;;;0.10;0.10;;;6.00;99.90;;;;;;6336909;22;20428;-77
2022/03/18 05:41:15;;;;;;;0.00;0.00;;;6.00;99.90;;;;;;6337424;22;20057;-68
2022/03/18 05:43:41;;;;;;;0.10;0.10;;;6.00;99.90;;;;;;6347116;22;20013;-68
2022/03/18 05:46:07;;;;;;;0.00;0.00;;;6.00;99.90;;;;;;6347214;22;20011;-69
2022/03/18 05:48:33;;;;;;;1.27;1.08;;;6.00;99.90;;;;;;6347338;22;20018;-69
2022/03/18 05:51:02;;;;;;;0.10;0.10;;;6.00;99.90;;;;;;6319782;22;20087;-69
2022/03/18 05:53:28;;;;;;;0.35;0.25;;;6.00;99.90;;;;;;6319589;22;20347;-69
2022/03/18 05:58:41;;;;;;;0.10;0.10;;;6.00;99.90;;;;;;6337103;22;20111;-69
2022/03/18 06:01:07;;;;;;;0.05;0.05;;;6.10;99.90;;;;;;6337318;22;20014;-69
2022/03/18 06:03:33;;;;;;;0.10;0.10;;;6.00;99.90;;;;;;6337106;22;20002;-68
2022/03/18 06:05:59;;;;;;;0.15;0.15;;;6.10;99.90;;;;;;6308908;22;20013;-68
2022/03/18 06:13:53;;;;;;;2.45;0.90;;;6.00;99.90;;;;;;6323720;22;20378;-69
2022/03/18 06:16:19;;;;;;;0.10;0.10;;;6.10;99.90;;;;;;6336265;22;20067;-68
2022/03/18 06:18:45;;;;;;;0.20;0.20;;;6.10;99.90;;;;;;6336523;22;20064;-68
2022/03/18 06:21:15;;;;;;;0.10;0.10;;;6.10;99.90;;;;;;6336777;22;20007;-73
2022/03/18 06:23:41;;;;;;;0.03;0.03;;;6.10;99.90;;;;;;6346410;22;20444;-71
2022/03/18 06:26:06;;;;;;;0.10;0.10;;;6.10;99.90;;;;;;6347088;22;20030;-68
2022/03/18 06:28:33;;;;;;;0.10;0.10;;;6.20;99.90;;;;;;6336908;22;20087;-73
2022/03/18 06:30:59;;;;;;;0.10;0.10;;;6.20;99.90;;;;;;6336587;22;20003;-70
2022/03/18 06:33:30;;;;;;;0.75;0.75;;;6.30;99.90;;;;;;6336751;22;20014;-70
2022/03/18 06:35:56;;;;;;;0.43;0.43;;;6.30;99.90;;;;;;6309972;22;20022;-71
2022/03/18 06:38:22;;;;;;;0.30;0.30;;;6.30;99.90;;;;;;6346567;22;20003;-70
2022/03/18 06:40:49;;;;;;;0.25;0.25;;;6.30;99.90;;;;;;6346664;22;20006;-70
2022/03/18 06:43:15;;;;;;;0.10;0.10;;;6.30;99.90;;;;;;6336456;22;20007;-69
2022/03/18 06:45:41;;;;;;;0.10;0.10;;;6.40;99.90;;;;;;6336625;22;20392;-71
2022/03/18 06:48:07;;;;;;;0.28;0.28;;;6.30;99.90;;;;;;6346847;22;20297;-70
2022/03/18 06:50:35;;;;;;;1.38;0.93;;;6.40;99.90;;;;;;6346852;22;20079;-71
2022/03/18 06:53:01;;;;;;;0.10;0.10;;;6.40;99.90;;;;;;6335793;22;20095;-71
2022/03/18 06:55:27;;;;;;;2.85;0.52;;;6.40;99.90;;;;;;6346466;22;20359;-70
2022/03/18 06:57:53;;;;;;;0.22;0.22;;;6.40;99.90;;;;;;6346470;22;20006;-71
2022/03/18 07:00:19;;;;;;;0.17;0.17;;;6.50;99.90;;;;;;6336513;22;20019;-71
2022/03/18 07:02:45;;;;;;;0.10;0.10;;;6.50;99.90;;;;;;6308377;22;20014;-72
2022/03/18 07:05:12;;;;;;;0.15;0.15;;;6.50;99.90;;;;;;6318660;22;20006;-71
2022/03/18 07:07:38;;;;;;;0.30;0.30;;;6.50;99.90;;;;;;6344850;22;20007;-71
2022/03/18 07:10:04;;;;;;;0.20;0.20;;;6.60;99.90;;;;;;6335848;22;20003;-71
2022/03/18 07:12:30;;;;;;;0.10;0.10;;;6.60;99.90;;;;;;6336572;22;20046;-70
2022/03/18 07:14:56;;;;;;;0.17;0.17;;;6.60;99.90;;;;;;6282635;22;20014;-70
2022/03/18 07:20:08;;;;;;;2.40;1.58;;;6.70;99.90;;;;;;6323297;22;20009;-71
2022/03/18 07:22:33;;;;;;;0.20;0.20;;;6.70;99.90;;;;;;6336141;22;20094;-71
2022/03/18 07:24:59;;;;;;;0.30;0.30;;;6.80;99.90;;;;;;6336407;22;20039;-72
2022/03/18 07:27:25;;;;;;;0.10;0.10;;;6.90;99.90;;;;;;6337233;22;20390;-71
2022/03/18 07:29:51;;;;;;;0.22;0.22;;;6.90;99.90;;;;;;6348341;22;20018;-71
2022/03/18 07:32:17;;;;;;;0.00;0.00;;;6.90;99.90;;;;;;6338214;22;20431;-72
2022/03/18 07:34:43;;;;;;;0.20;0.20;;;6.90;99.90;;;;;;6348622;22;20080;-71
2022/03/18 07:37:09;;;;;;;0.20;0.20;;;7.00;99.90;;;;;;6338065;22;19999;-71
2022/03/18 07:39:34;;;;;;;0.40;0.25;;;7.10;99.90;;;;;;6338158;22;20041;-71
2022/03/18 07:42:00;;;;;;;0.25;0.25;;;7.00;99.90;;;;;;6338181;22;20502;-71
2022/03/18 07:44:26;;;;;;;1.55;1.40;;;7.10;99.90;;;;;;6338193;22;20030;-70
2022/03/18 07:46:51;;;;;;;0.40;0.40;;;7.20;99.90;;;;;;6348302;22;20015;-70
2022/03/18 07:49:17;;;;;;;0.75;0.75;;;7.20;99.90;;;;;;6338286;22;20438;-71
2022/03/18 07:51:43;;;;;;;0.57;0.57;;;7.30;99.90;;;;;;6348536;22;20073;-72
2022/03/18 07:54:09;;;;;;;0.30;0.30;;;7.50;99.90;;;;;;6337199;22;20007;-72
2022/03/18 07:56:34;;;;;;;0.10;0.10;;;7.50;99.90;;;;;;6348109;22;20013;-75
2022/03/18 07:59:00;;;;;;;0.25;0.25;;;7.50;99.90;;;;;;6337673;22;20081;-70
2022/03/18 08:01:26;;;;;;;0.45;0.45;;;7.50;99.90;;;;;;6348366;22;20436;-76
2022/03/18 08:03:52;;;;;;;0.55;0.55;;;7.60;99.90;;;;;;6337807;22;20010;-76
2022/03/18 08:06:19;;;;;;;0.10;0.10;;;7.70;99.90;;;;;;6348224;22;20045;-76
2022/03/18 08:08:45;;;;;;;0.43;0.43;;;7.70;99.90;;;;;;6347865;22;20006;-77
2022/03/18 08:11:12;;;;;;;0.20;0.20;;;7.90;99.90;;;;;;6338050;22;20027;-77
2022/03/18 08:13:38;;;;;;;0.00;0.00;;;7.90;99.90;;;;;;6348266;22;20060;-77
2022/03/18 08:16:04;;;;;;;2.35;0.77;;;7.90;99.90;;;;;;6337746;22;20488;-77
2022/03/18 08:18:30;;;;;;;0.10;0.10;;;7.90;99.90;;;;;;6347701;22;20003;-77
2022/03/18 08:20:56;;;;;;;0.52;0.52;;;8.00;99.90;;;;;;6320363;22;20466;-77
2022/03/18 08:23:23;;;;;;;0.00;0.00;;;8.10;99.90;;;;;;6258971;22;20002;-77
2022/03/18 08:25:49;;;;;;;0.08;0.08;;;8.20;99.90;;;;;;6310641;22;20006;-77
2022/03/18 08:28:15;;;;;;;0.13;0.13;;;8.00;99.90;;;;;;6310054;22;20015;-77
2022/03/18 08:30:41;;;;;;;0.08;0.08;;;8.10;99.90;;;;;;6310401;22;20007;-77
2022/03/18 08:33:07;;;;;;;14.38;1.70;;;8.20;99.90;;;;;;6337291;22;20383;-76
2022/03/18 08:35:36;;;;;;;0.00;0.00;;;8.30;99.90;;;;;;6348174;22;20010;-76
2022/03/18 08:38:07;;;;;;;0.00;0.00;;;8.40;99.90;;;;;;6309089;22;20332;-76
2022/03/18 08:40:35;;;;;;;0.10;0.10;;;8.50;99.90;;;;;;6320323;22;20057;-76
2022/03/18 08:43:05;;;;;;;0.00;0.00;;;8.50;99.90;;;;;;6320352;22;20007;-77
2022/03/18 08:45:32;;;;;;;0.25;0.25;;;8.50;99.90;;;;;;6347973;22;20003;-77
2022/03/18 08:47:58;;;;;;;0.30;0.30;;;8.50;99.90;;;;;;6347595;22;20332;-77
2022/03/18 08:50:24;;;;;;;0.30;0.30;;;8.70;99.90;;;;;;6320334;22;20010;-76
2022/03/18 08:52:53;;;;;;;0.10;0.10;;;8.60;99.90;;;;;;6308857;22;20634;-77
2022/03/18 08:55:20;;;;;;;0.38;0.38;;;8.80;99.90;;;;;;6320017;22;20003;-76
2022/03/18 08:57:46;;;;;;;0.13;0.13;;;8.80;99.90;;;;;;6337224;22;20431;-76
2022/03/18 09:00:15;;;;;;;0.00;0.00;;;8.80;99.90;;;;;;6347379;22;20011;-76
2022/03/18 09:02:43;;;;;;;0.00;0.00;;;8.90;99.90;;;;;;6347858;22;20332;-77
2022/03/18 09:05:10;;;;;;;0.10;0.10;;;8.80;99.90;;;;;;6347299;22;20213;-76
2022/03/18 09:07:38;;;;;;;0.95;0.75;;;8.80;99.90;;;;;;6347432;22;20019;-76
2022/03/18 09:10:06;;;;;;;0.00;0.00;;;8.80;99.90;;;;;;6347500;22;20006;-75
2022/03/18 09:12:32;;;;;;;0.10;0.10;;;9.00;99.90;;;;;;6347481;22;20026;-77
2022/03/18 09:14:58;;;;;;;2.50;1.85;;;9.00;99.90;;;;;;6337142;22;20046;-77
2022/03/18 09:17:24;;;;;;;0.10;0.10;;;9.10;99.90;;;;;;6319877;22;20056;-77
2022/03/18 09:19:50;;;;;;;0.00;0.00;;;9.10;99.90;;;;;;6337205;22;20025;-77
2022/03/18 09:22:16;;;;;;;0.00;0.00;;;9.20;99.90;;;;;;6347005;22;20427;-76
2022/03/18 09:24:44;;;;;;;1.08;0.50;;;9.10;99.90;;;;;;6346992;22;20021;-76
2022/03/18 09:27:10;;;;;;;0.10;0.10;;;9.00;99.90;;;;;;6337134;22;20011;-77
2022/03/18 09:29:37;;;;;;;0.05;0.05;;;8.90;99.90;;;;;;6347200;22;20010;-77
2022/03/18 09:32:05;;;;;;;0.20;0.20;;;9.00;99.90;;;;;;6309212;22;20007;-76
2022/03/18 09:34:31;;;;;;;0.30;0.30;;;9.10;99.90;;;;;;6347240;22;20010;-77
2022/03/18 09:36:58;;;;;;;3.20;1.27;;;9.20;99.90;;;;;;6347257;22;20003;-77
2022/03/18 09:39:26;;;;;;;0.00;0.00;;;9.30;99.90;;;;;;6337042;22;20011;-75
2022/03/18 09:41:53;;;;;;;0.32;0.30;;;9.00;99.90;;;;;;6346992;22;20025;-78
2022/03/18 09:44:19;;;;;;;0.10;0.10;;;9.20;99.90;;;;;;6319806;22;20060;-76
2022/03/18 09:46:51;;;;;;;0.05;0.05;;;9.30;99.90;;;;;;6336900;22;20010;-76
2022/03/18 09:49:22;;;;;;;0.40;0.40;;;9.40;99.90;;;;;;6346903;22;20015;-77
2022/03/18 09:51:48;;;;;;;0.13;0.13;;;9.70;99.90;;;;;;6337256;22;20003;-77
2022/03/18 09:54:15;;;;;;;0.08;0.08;;;9.60;99.90;;;;;;6346729;22;20002;-77
2022/03/18 09:56:47;;;;;;;0.15;0.15;;;9.60;99.90;;;;;;6347109;22;19999;-77
2022/03/18 09:59:14;;;;;;;0.08;0.08;;;9.80;99.90;;;;;;6346558;22;20015;-76
2022/03/18 10:01:40;;;;;;;0.28;0.28;;;10.10;99.90;;;;;;6319523;22;20018;-76
2022/03/18 10:04:12;;;;;;;0.63;0.63;;;10.30;99.90;;;;;;6346809;22;20003;-76
2022/03/18 10:06:42;;;;;;;0.80;0.75;;;10.40;99.90;;;;;;6347200;22;20340;-76
2022/03/18 10:09:10;;;;;;;0.30;0.30;;;10.60;99.90;;;;;;6308383;22;20011;-78
2022/03/18 10:11:43;;;;;;;0.00;0.00;;;10.90;99.90;;;;;;6346602;22;20014;-77
2022/03/18 10:14:15;;;;;;;0.38;0.38;;;11.10;99.90;;;;;;6284756;22;19999;-78
2022/03/18 10:16:51;;;;;;;0.10;0.10;;;11.20;99.90;;;;;;6283763;22;20041;-77
2022/03/18 10:19:21;;;;;;;0.00;0.00;;;11.40;99.90;;;;;;6347111;22;20017;-77
2022/03/18 10:21:53;;;;;;;0.52;0.43;;;11.50;99.90;;;;;;6346634;22;20378;-76
2022/03/18 10:24:36;;;;;;;0.10;0.10;;;11.40;99.90;;;;;;6336654;22;20011;-77
2022/03/18 10:27:20;;;;;;;1.25;1.15;;;11.10;99.90;;;;;;6337063;22;20011;-77
2022/03/18 10:29:51;;;;;;;1.67;1.17;;;11.30;99.90;;;;;;6336922;22;20480;-76
2022/03/18 10:32:19;;;;;;;0.10;0.10;;;11.30;99.90;;;;;;6337104;22;20007;-73
2022/03/18 10:37:54;;;;;;;0.13;0.13;;;12.00;99.90;;;;;;6313778;22;20581;-81
2022/03/18 10:40:36;;;;;;;1.40;1.02;;;12.10;99.90;;;;;;6309978;22;20038;-72
2022/03/18 10:43:05;;;;;;;0.47;0.47;;;12.30;99.90;;;;;;6336794;22;20034;-75
2022/03/18 10:45:31;;;;;;;0.73;0.28;;;12.50;99.90;;;;;;6336620;22;20014;-75
2022/03/18 10:48:15;;;;;;;0.22;0.22;;;12.70;99.90;;;;;;6336776;22;20147;-76
2022/03/18 10:50:41;;;;;;;0.28;0.28;;;12.60;99.90;;;;;;6319359;22;20074;-72
2022/03/18 10:53:11;;;;;;;0.75;0.75;;;12.10;99.90;;;;;;6336018;22;20084;-77
2022/03/18 10:55:42;;;;;;;0.52;0.52;;;12.40;99.90;;;;;;6346649;22;20014;-79
2022/03/18 10:58:17;;;;;;;0.82;0.82;;;12.70;99.90;;;;;;6319157;22;20335;-75
2022/03/18 11:00:46;;;;;;;0.43;0.43;;;12.70;99.90;;;;;;6336827;22;20010;-68
2022/03/18 11:03:14;;;;;;;0.45;0.45;;;12.80;99.90;;;;;;6338213;22;20018;-68
2022/03/18 11:05:41;;;;;;;0.38;0.38;;;12.90;99.90;;;;;;6338173;22;20435;-69
2022/03/18 11:08:13;;;;;;;2.47;1.95;;;12.90;99.90;;;;;;6348526;22;20011;-66
2022/03/18 11:11:10;;;;;;;0.00;0.00;;;12.60;99.90;;;;;;6310505;22;20014;-70
2022/03/18 11:14:00;;;;;;;2.83;0.65;;;13.00;99.90;;;;;;6338544;22;20045;-72
2022/03/18 11:16:33;;;;;;;0.70;0.70;;;13.00;99.90;;;;;;6338738;22;20010;-76
2022/03/18 11:19:03;;;;;;;0.40;0.40;;;13.20;99.90;;;;;;6311040;22;20420;-73
2022/03/18 11:21:38;;;;;;;0.13;0.13;;;13.10;99.90;;;;;;6310068;22;20041;-73
2022/03/18 11:24:14;;;;;;;28.15;1.85;;;13.30;99.90;;;;;;6322480;22;20011;-72
2022/03/18 11:26:50;;;;;;;0.75;0.50;;;13.10;99.90;;;;;;6338115;22;20415;-72
2022/03/18 11:29:26;;;;;;;0.20;0.20;;;13.40;99.90;;;;;;6284628;22;20015;-73
2022/03/18 11:32:10;;;;;;;1.10;1.00;;;13.40;99.90;;;;;;6310454;22;20620;-73
2022/03/18 11:34:58;;;;;;;0.00;0.00;;;13.50;99.30;;;;;;6338205;22;20028;-73
2022/03/18 11:37:29;;;;;;;0.00;0.00;;;13.60;99.40;;;;;;6312082;22;20006;-73
2022/03/18 11:40:20;;;;;;;0.25;0.25;;;13.60;99.10;;;;;;6321747;22;19998;-73
2022/03/18 11:42:48;;;;;;;0.13;0.13;;;13.50;99.00;;;;;;6348405;22;20006;-73
2022/03/18 11:45:42;;;;;;;0.70;0.70;;;13.60;99.10;;;;;;6321024;22;20014;-74
2022/03/18 11:48:37;;;;;;;0.00;0.00;;;13.90;98.70;;;;;;6306893;22;20042;-74
2022/03/18 11:51:26;;;;;;;0.05;0.05;;;14.10;98.20;;;;;;6310976;22;20015;-74
2022/03/18 11:53:54;;;;;;;0.45;0.45;;;14.40;97.70;;;;;;6348194;22;20013;-74
2022/03/18 11:56:46;;;;;;;0.20;0.20;;;14.40;97.20;;;;;;6348227;22;20401;-74
2022/03/18 11:59:27;;;;;;;1.10;0.55;;;14.20;97.30;;;;;;6337822;22;20382;-74
2022/03/18 12:02:00;;;;;;;0.00;0.00;;;14.20;97.20;;;;;;6347812;22;20017;-74
2022/03/18 12:04:44;;;;;;;0.10;0.10;;;14.60;97.10;;;;;;6311412;22;20014;-73
2022/03/18 12:07:15;;;;;;;0.20;0.15;;;14.90;96.20;;;;;;6310211;22;20017;-74
2022/03/18 12:09:53;;;;;;;0.00;0.00;;;15.10;96.00;;;;;;6338033;22;20010;-73
2022/03/18 12:12:32;;;;;;;0.20;0.20;;;15.10;95.50;;;;;;6309600;22;20011;-73
2022/03/18 12:15:07;;;;;;;0.25;0.25;;;14.40;96.30;;;;;;6337467;22;20424;-73
2022/03/18 12:17:46;;;;;;;0.20;0.20;;;14.70;95.60;;;;;;6348278;22;20102;-72
2022/03/18 12:20:19;;;;;;;0.20;0.10;;;14.70;95.80;;;;;;6295056;22;20014;-72
2022/03/18 12:22:46;;;;;;;0.98;0.88;;;14.60;95.60;;;;;;6347765;22;20007;-72
2022/03/18 12:25:12;;;;;;;0.20;0.20;;;15.00;95.40;;;;;;6337346;22;20084;-73
2022/03/18 12:27:44;;;;;;;0.75;0.60;;;15.30;95.10;;;;;;6337451;22;20514;-73
2022/03/18 12:30:11;;;;;;;0.32;0.32;;;15.90;94.30;;;;;;6311346;22;19999;-73
2022/03/18 12:33:00;;;;;;;0.10;0.10;;;16.10;93.50;;;;;;6347750;22;20022;-73
2022/03/18 12:35:42;;;;;;;0.00;0.00;;;16.80;92.30;;;;;;6310141;22;20444;-73
2022/03/18 12:38:17;;;;;;;0.10;0.10;;;17.50;91.50;;;;;;6311282;22;20049;-73
2022/03/18 12:40:59;;;;;;;0.43;0.35;;;18.40;89.70;;;;;;6337246;22;20010;-74
2022/03/18 12:43:31;;;;;;;0.10;0.10;;;18.70;87.10;;;;;;6347639;22;20317;-74
2022/03/18 12:45:59;;;;;;;0.77;0.77;;;18.60;84.50;;;;;;6347474;22;20122;-73
2022/03/18 12:48:25;;;;;;;0.30;0.30;;;18.10;82.60;;;;;;6319986;22;20006;-73
2022/03/18 12:50:56;;;;;;;0.08;0.08;;;18.30;84.40;;;;;;6347633;22;20010;-74
2022/03/18 12:53:27;;;;;;;0.00;0.00;;;19.30;81.70;;;;;;6336472;22;20374;-74
2022/03/18 12:55:59;;;;;;;0.60;0.55;;;19.10;78.50;;;;;;6347726;22;20010;-74
2022/03/18 12:58:28;;;;;;;0.52;0.52;;;19.10;76.50;;;;;;6337454;22;20002;-73
2022/03/18 13:00:57;;;;;;;0.00;0.00;;;18.50;78.00;;;;;;6347811;22;20007;-73
2022/03/18 13:03:28;;;;;;;0.52;0.52;;;18.20;78.30;;;;;;6347322;22;20011;-73
2022/03/18 13:06:06;;;;;;;0.20;0.13;;;18.20;78.80;;;;;;6337119;22;20026;-73
2022/03/18 13:08:36;;;;;;;0.00;0.00;;;18.50;77.30;;;;;;6347392;22;20006;-73
2022/03/18 13:11:05;;;;;;;1.13;0.52;;;17.40;79.70;;;;;;6337869;22;20010;-73
2022/03/18 13:13:32;;;;;;;0.80;0.77;;;17.10;81.40;;;;;;6337319;22;20010;-74
2022/03/18 13:16:05;;;;;;;0.00;0.00;;;18.10;80.40;;;;;;6337514;22;20011;-74
2022/03/18 13:18:35;;;;;;;0.17;0.17;;;17.60;77.30;;;;;;6347440;22;20025;-73
2022/03/18 13:21:07;;;;;;;0.00;0.00;;;17.50;80.00;;;;;;6284114;22;20033;-73
2022/03/18 13:23:36;;;;;;;0.55;0.50;;;18.10;78.40;;;;;;6347045;22;20423;-73
2022/03/18 13:26:02;;;;;;;0.00;0.00;;;17.30;78.50;;;;;;6283920;22;20060;-86